Brad Bennink — WDD4338 — position and weather

sailwx.info

Track history (hours):
 
Tides and Currents Weather Stations Pressure Air Temp Water Temp Dewpoint Dewpoint Depression Visibility Wind Speed Wind Dir Waves Ship Positions

Brad Bennink

Owner: American Commercial Lines LLC, Jeffersonville, IN. More information available from US FCC via Universal Licensing System and Coast Guard Vessel Documentation Center.

Last reported at 2017-Sep-09 07:00 UTC. Time now 2017-Sep-24 05:22 UTC.
Position N 38°58' W 090°33'.
Warning: this ship's position is 14 days out of date.

Length 39 m; draft 2.9 m.

Type: Towing. MMSI: 367143450.

Date/timePositionNaut miles runAvg speedWind from/ knotsBaromVisibWave heightAir tempDewpointWater temp
2017-Sep-09 07:00N 38°58' W 090°33'2 4.2
2017-Sep-09 06:30N 38°57' W 090°31'2 4.5
2017-Sep-09 06:00N 38°58' W 090°28'2 4.4
2017-Sep-09 05:30N 38°58' W 090°25'2 4.6
2017-Sep-09 05:00N 38°57' W 090°22'2 4.8
2017-Sep-09 04:30N 38°56' W 090°20'6 0.1
2017-Sep-07 10:33N 38°54' W 090°12'1 2.8
2017-Sep-07 10:03N 38°55' W 090°13'0 0.5
2017-Sep-07 10:00N 38°55' W 090°13'0 0.0
2017-Sep-07 09:29N 38°55' W 090°13'0 0.0
2017-Sep-07 09:00N 38°55' W 090°13'0 0.0
2017-Sep-07 08:28N 38°55' W 090°13'0 0.0
2017-Sep-07 07:47N 38°55' W 090°13'0 0.0
2017-Sep-07 07:30N 38°55' W 090°13'0 0.0
2017-Sep-07 06:23N 38°55' W 090°13'0 0.0
2017-Sep-07 05:58N 38°55' W 090°13'1 0.1
2017-Sep-06 21:17N 38°55' W 090°14'1 2.6
2017-Sep-06 20:52N 38°55' W 090°15'2 5.1
2017-Sep-06 20:30N 38°55' W 090°18'2 4.8
2017-Sep-06 20:00N 38°56' W 090°21'3 5.2
2017-Sep-06 19:30N 38°58' W 090°23'2 4.9
2017-Sep-06 19:00N 38°57' W 090°27'2 4.7
2017-Sep-06 18:30N 38°56' W 090°29'  
2017-Sep-04 09:37N 40°46' W 091°06'1 5.4
2017-Sep-04 09:29N 40°46' W 091°06'2 3.9
2017-Sep-04 09:00N 40°48' W 091°06'1 2.7
2017-Sep-04 08:31N 40°50' W 091°05'2 4.4
2017-Sep-04 08:00N 40°51' W 091°03'2 4.3
2017-Sep-04 07:30N 40°53' W 091°02'0 0.3
2017-Sep-04 07:00N 40°53' W 091°01'0 0.0
2017-Sep-04 06:30N 40°53' W 091°01'0 0.2
2017-Sep-04 06:00N 40°53' W 091°01'0 0.0
2017-Sep-04 05:30N 40°53' W 091°01'0 0.3
2017-Sep-04 05:00N 40°53' W 091°01'1 2.2
2017-Sep-04 04:30N 40°54' W 091°00'2 4.4
2017-Sep-04 04:00N 40°55' W 090°58'2 4.4
2017-Sep-04 03:28N 40°57' W 090°57'2 5.3
2017-Sep-04 03:00N 40°60' W 090°57'3 5.7
2017-Sep-04 02:30N 41°03' W 090°57'2 5.0
2017-Sep-04 02:00N 41°05' W 090°57'  
Track history (hours):
 
Tides and Currents Weather Stations Pressure Air Temp Water Temp Dewpoint Dewpoint Depression Visibility Wind Speed Wind Dir Waves Ship Positions

Brad Bennink

Owner: American Commercial Lines LLC, Jeffersonville, IN. More information available from US FCC via Universal Licensing System and Coast Guard Vessel Documentation Center.

Last reported at 2017-Sep-09 07:00 UTC. Time now 2017-Sep-24 05:22 UTC.
Position N 38°58' W 090°33'.
Warning: this ship's position is 14 days out of date.

Length 39 m; draft 2.9 m.

Type: Towing. MMSI: 367143450.

Date/timePositionNaut miles runAvg speedWind from/ knotsBaromVisibWave heightAir tempDewpointWater temp
2017-Sep-09 07:00N 38°58' W 090°33'2 4.2
2017-Sep-09 06:30N 38°57' W 090°31'2 4.5
2017-Sep-09 06:00N 38°58' W 090°28'2 4.4
2017-Sep-09 05:30N 38°58' W 090°25'2 4.6
2017-Sep-09 05:00N 38°57' W 090°22'2 4.8
2017-Sep-09 04:30N 38°56' W 090°20'6 0.1
2017-Sep-07 10:33N 38°54' W 090°12'1 2.8
2017-Sep-07 10:03N 38°55' W 090°13'0 0.5
2017-Sep-07 10:00N 38°55' W 090°13'0 0.0
2017-Sep-07 09:29N 38°55' W 090°13'0 0.0
2017-Sep-07 09:00N 38°55' W 090°13'0 0.0
2017-Sep-07 08:28N 38°55' W 090°13'0 0.0
2017-Sep-07 07:47N 38°55' W 090°13'0 0.0
2017-Sep-07 07:30N 38°55' W 090°13'0 0.0
2017-Sep-07 06:23N 38°55' W 090°13'0 0.0
2017-Sep-07 05:58N 38°55' W 090°13'1 0.1
2017-Sep-06 21:17N 38°55' W 090°14'1 2.6
2017-Sep-06 20:52N 38°55' W 090°15'2 5.1
2017-Sep-06 20:30N 38°55' W 090°18'2 4.8
2017-Sep-06 20:00N 38°56' W 090°21'3 5.2
2017-Sep-06 19:30N 38°58' W 090°23'2 4.9
2017-Sep-06 19:00N 38°57' W 090°27'2 4.7
2017-Sep-06 18:30N 38°56' W 090°29'  
2017-Sep-04 09:37N 40°46' W 091°06'1 5.4
2017-Sep-04 09:29N 40°46' W 091°06'2 3.9
2017-Sep-04 09:00N 40°48' W 091°06'1 2.7
2017-Sep-04 08:31N 40°50' W 091°05'2 4.4
2017-Sep-04 08:00N 40°51' W 091°03'2 4.3
2017-Sep-04 07:30N 40°53' W 091°02'0 0.3
2017-Sep-04 07:00N 40°53' W 091°01'0 0.0
2017-Sep-04 06:30N 40°53' W 091°01'0 0.2
2017-Sep-04 06:00N 40°53' W 091°01'0 0.0
2017-Sep-04 05:30N 40°53' W 091°01'0 0.3
2017-Sep-04 05:00N 40°53' W 091°01'1 2.2
2017-Sep-04 04:30N 40°54' W 091°00'2 4.4
2017-Sep-04 04:00N 40°55' W 090°58'2 4.4
2017-Sep-04 03:28N 40°57' W 090°57'2 5.3
2017-Sep-04 03:00N 40°60' W 090°57'3 5.7
2017-Sep-04 02:30N 41°03' W 090°57'2 5.0
2017-Sep-04 02:00N 41°05' W 090°57'  

Dump ship's entire track history